sensor_id;sensor_type;location;lat;lon;timestamp;pressure;altitude;pressure_sealevel;temperature;humidity
13456;BME280;6800;50.940;6.940;2023-04-27T00:02:20;101178.19;;;17.31;30.94
13456;BME280;6800;50.940;6.940;2023-04-27T00:06:22;101173.81;;;16.62;32.35
13456;BME280;6800;50.940;6.940;2023-04-27T00:10:24;101177.38;;;17.42;31.26
13456;BME280;6800;50.940;6.940;2023-04-27T00:14:25;101180.22;;;16.82;32.02
13456;BME280;6800;50.940;6.940;2023-04-27T00:18:29;101182.22;;;17.70;30.91
13456;BME280;6800;50.940;6.940;2023-04-27T00:22:31;101185.56;;;18.05;30.45
13456;BME280;6800;50.940;6.940;2023-04-27T00:26:35;101183.94;;;16.79;32.18
13456;BME280;6800;50.940;6.940;2023-04-27T00:30:55;101185.22;;;17.54;31.51
13456;BME280;6800;50.940;6.940;2023-04-27T00:34:56;101188.44;;;17.47;31.70
13456;BME280;6800;50.940;6.940;2023-04-27T00:38:57;101189.06;;;17.61;31.00
13456;BME280;6800;50.940;6.940;2023-04-27T00:42:59;101191.03;;;17.36;31.39
13456;BME280;6800;50.940;6.940;2023-04-27T00:47:01;101193.97;;;17.88;30.70
13456;BME280;6800;50.940;6.940;2023-04-27T00:51:02;101184.06;;;17.24;32.03
13456;BME280;6800;50.940;6.940;2023-04-27T00:55:04;101189.25;;;18.25;30.19
13456;BME280;6800;50.940;6.940;2023-04-27T00:59:06;101177.53;;;16.23;33.80
13456;BME280;6800;50.940;6.940;2023-04-27T01:03:07;101179.03;;;17.32;32.16
13456;BME280;6800;50.940;6.940;2023-04-27T01:07:09;101185.59;;;16.09;34.22
13456;BME280;6800;50.940;6.940;2023-04-27T01:11:11;101182.50;;;16.15;34.21
13456;BME280;6800;50.940;6.940;2023-04-27T01:15:12;101176.13;;;17.12;32.67
13456;BME280;6800;50.940;6.940;2023-04-27T01:19:14;101190.25;;;16.66;33.17
13456;BME280;6800;50.940;6.940;2023-04-27T01:23:15;101188.97;;;16.82;32.50
13456;BME280;6800;50.940;6.940;2023-04-27T01:27:17;101187.16;;;16.35;33.93
13456;BME280;6800;50.940;6.940;2023-04-27T01:31:19;101196.50;;;15.54;35.04
13456;BME280;6800;50.940;6.940;2023-04-27T01:35:20;101179.28;;;17.40;32.05
13456;BME280;6800;50.940;6.940;2023-04-27T01:39:22;101186.19;;;17.07;32.64
13456;BME280;6800;50.940;6.940;2023-04-27T01:43:23;101184.69;;;16.58;33.72
13456;BME280;6800;50.940;6.940;2023-04-27T01:47:25;101192.53;;;16.70;33.57
13456;BME280;6800;50.940;6.940;2023-04-27T01:51:27;101190.53;;;17.31;32.11
13456;BME280;6800;50.940;6.940;2023-04-27T01:55:28;101198.81;;;16.80;33.03
13456;BME280;6800;50.940;6.940;2023-04-27T01:59:29;101199.22;;;16.63;32.98
13456;BME280;6800;50.940;6.940;2023-04-27T02:03:31;101191.66;;;16.93;32.94
13456;BME280;6800;50.940;6.940;2023-04-27T02:07:32;101198.84;;;16.44;34.02
13456;BME280;6800;50.940;6.940;2023-04-27T02:11:34;101191.47;;;16.13;34.06
13456;BME280;6800;50.940;6.940;2023-04-27T02:15:35;101199.72;;;15.96;34.90
13456;BME280;6800;50.940;6.940;2023-04-27T02:19:37;101194.53;;;16.43;34.06
13456;BME280;6800;50.940;6.940;2023-04-27T02:23:38;101207.00;;;15.29;36.39
13456;BME280;6800;50.940;6.940;2023-04-27T02:27:40;101205.13;;;16.30;34.16
13456;BME280;6800;50.940;6.940;2023-04-27T02:31:41;101202.59;;;15.68;35.96
13456;BME280;6800;50.940;6.940;2023-04-27T02:35:43;101203.91;;;16.47;34.63
13456;BME280;6800;50.940;6.940;2023-04-27T02:39:44;101203.16;;;15.60;35.88
13456;BME280;6800;50.940;6.940;2023-04-27T02:43:46;101208.34;;;15.10;36.27
13456;BME280;6800;50.940;6.940;2023-04-27T02:47:48;101200.53;;;16.09;35.01
13456;BME280;6800;50.940;6.940;2023-04-27T02:51:51;101198.44;;;16.01;35.28
13456;BME280;6800;50.940;6.940;2023-04-27T02:55:52;101182.22;;;15.58;36.01
13456;BME280;6800;50.940;6.940;2023-04-27T02:59:53;101188.38;;;15.32;36.24
13456;BME280;6800;50.940;6.940;2023-04-27T03:03:55;101190.41;;;15.67;35.70
13456;BME280;6800;50.940;6.940;2023-04-27T03:07:56;101187.78;;;15.67;35.43
13456;BME280;6800;50.940;6.940;2023-04-27T03:11:58;101176.25;;;15.80;35.60
13456;BME280;6800;50.940;6.940;2023-04-27T03:15:59;101185.28;;;14.88;37.14
13456;BME280;6800;50.940;6.940;2023-04-27T03:20:01;101181.63;;;15.16;36.64
13456;BME280;6800;50.940;6.940;2023-04-27T03:24:02;101192.38;;;15.25;36.61
13456;BME280;6800;50.940;6.940;2023-04-27T03:28:04;101190.84;;;14.96;36.90
13456;BME280;6800;50.940;6.940;2023-04-27T03:32:05;101184.34;;;16.02;35.27
13456;BME280;6800;50.940;6.940;2023-04-27T03:36:07;101191.31;;;14.76;37.17
13456;BME280;6800;50.940;6.940;2023-04-27T03:40:11;101180.50;;;15.32;36.76
13456;BME280;6800;50.940;6.940;2023-04-27T03:44:12;101195.31;;;15.33;36.37
13456;BME280;6800;50.940;6.940;2023-04-27T03:48:14;101189.03;;;14.71;37.74
13456;BME280;6800;50.940;6.940;2023-04-27T03:52:15;101189.50;;;15.03;37.08
13456;BME280;6800;50.940;6.940;2023-04-27T03:56:17;101190.09;;;14.81;37.16
13456;BME280;6800;50.940;6.940;2023-04-27T04:00:19;101200.75;;;14.93;37.33
13456;BME280;6800;50.940;6.940;2023-04-27T04:04:20;101205.75;;;14.30;38.62
13456;BME280;6800;50.940;6.940;2023-04-27T04:08:22;101206.88;;;14.26;38.79
13456;BME280;6800;50.940;6.940;2023-04-27T04:12:24;101214.06;;;13.81;38.99
13456;BME280;6800;50.940;6.940;2023-04-27T04:16:25;101213.63;;;14.44;38.69
13456;BME280;6800;50.940;6.940;2023-04-27T04:20:27;101219.91;;;14.27;39.33
13456;BME280;6800;50.940;6.940;2023-04-27T04:24:28;101225.56;;;14.35;39.35
13456;BME280;6800;50.940;6.940;2023-04-27T04:28:29;101224.22;;;15.08;37.93
13456;BME280;6800;50.940;6.940;2023-04-27T04:32:31;101229.50;;;15.33;36.67
13456;BME280;6800;50.940;6.940;2023-04-27T04:36:33;101225.44;;;14.90;37.20
13456;BME280;6800;50.940;6.940;2023-04-27T04:40:39;101225.00;;;14.83;37.79
13456;BME280;6800;50.940;6.940;2023-04-27T04:44:42;101228.63;;;14.28;39.03
13456;BME280;6800;50.940;6.940;2023-04-27T04:48:44;101235.19;;;14.75;37.69
13456;BME280;6800;50.940;6.940;2023-04-27T04:52:47;101237.00;;;15.27;36.77
13456;BME280;6800;50.940;6.940;2023-04-27T04:56:48;101244.66;;;14.23;38.14
13456;BME280;6800;50.940;6.940;2023-04-27T05:00:49;101232.59;;;14.88;37.78
13456;BME280;6800;50.940;6.940;2023-04-27T05:04:51;101243.63;;;15.32;36.60
13456;BME280;6800;50.940;6.940;2023-04-27T05:08:52;101246.44;;;15.29;37.00
13456;BME280;6800;50.940;6.940;2023-04-27T05:12:54;101246.72;;;14.73;37.88
13456;BME280;6800;50.940;6.940;2023-04-27T05:16:55;101249.84;;;15.44;37.15
13456;BME280;6800;50.940;6.940;2023-04-27T05:20:57;101250.28;;;14.72;37.63
13456;BME280;6800;50.940;6.940;2023-04-27T05:24:58;101258.56;;;14.11;38.91
13456;BME280;6800;50.940;6.940;2023-04-27T05:28:59;101252.13;;;14.84;38.11
13456;BME280;6800;50.940;6.940;2023-04-27T05:33:04;101262.69;;;14.15;39.34
13456;BME280;6800;50.940;6.940;2023-04-27T05:37:05;101262.72;;;14.29;38.56
13456;BME280;6800;50.940;6.940;2023-04-27T05:41:07;101262.63;;;15.75;36.80
13456;BME280;6800;50.940;6.940;2023-04-27T05:45:09;101267.03;;;16.49;34.82
13456;BME280;6800;50.940;6.940;2023-04-27T05:49:10;101275.91;;;15.34;37.57
13456;BME280;6800;50.940;6.940;2023-04-27T05:53:12;101269.13;;;15.95;36.30
13456;BME280;6800;50.940;6.940;2023-04-27T05:57:14;101272.91;;;16.16;35.57
13456;BME280;6800;50.940;6.940;2023-04-27T06:01:15;101269.75;;;17.42;33.46
13456;BME280;6800;50.940;6.940;2023-04-27T06:05:17;101277.38;;;16.99;34.88
13456;BME280;6800;50.940;6.940;2023-04-27T06:09:18;101280.38;;;16.22;35.77
13456;BME280;6800;50.940;6.940;2023-04-27T06:13:20;101275.06;;;16.47;35.23
13456;BME280;6800;50.940;6.940;2023-04-27T06:17:21;101281.25;;;18.20;32.83
13456;BME280;6800;50.940;6.940;2023-04-27T06:21:23;101278.13;;;19.02;30.89
13456;BME280;6800;50.940;6.940;2023-04-27T06:25:24;101269.25;;;19.23;31.09
13456;BME280;6800;50.940;6.940;2023-04-27T06:29:28;101281.75;;;18.90;31.61
13456;BME280;6800;50.940;6.940;2023-04-27T06:33:30;101277.13;;;19.96;28.87
13456;BME280;6800;50.940;6.940;2023-04-27T06:37:31;101278.69;;;18.74;30.84
13456;BME280;6800;50.940;6.940;2023-04-27T06:41:33;101273.38;;;21.26;26.64
13456;BME280;6800;50.940;6.940;2023-04-27T06:45:34;101275.97;;;22.47;25.95
13456;BME280;6800;50.940;6.940;2023-04-27T06:49:36;101276.09;;;20.58;27.35
13456;BME280;6800;50.940;6.940;2023-04-27T06:53:38;101272.81;;;22.62;25.54
13456;BME280;6800;50.940;6.940;2023-04-27T06:57:43;101272.59;;;21.82;25.34
13456;BME280;6800;50.940;6.940;2023-04-27T07:01:44;101270.59;;;20.40;27.37
13456;BME280;6800;50.940;6.940;2023-04-27T07:05:46;101260.25;;;21.81;25.99
13456;BME280;6800;50.940;6.940;2023-04-27T07:09:48;101260.56;;;22.24;25.81
13456;BME280;6800;50.940;6.940;2023-04-27T07:13:49;101263.59;;;22.56;24.87
13456;BME280;6800;50.940;6.940;2023-04-27T07:18:01;101256.41;;;23.01;24.01
13456;BME280;6800;50.940;6.940;2023-04-27T07:22:02;101263.47;;;23.10;24.32
13456;BME280;6800;50.940;6.940;2023-04-27T07:26:04;101259.22;;;23.35;23.59
13456;BME280;6800;50.940;6.940;2023-04-27T07:30:06;101251.81;;;24.90;21.41
13456;BME280;6800;50.940;6.940;2023-04-27T07:34:12;101254.97;;;20.47;27.10
13456;BME280;6800;50.940;6.940;2023-04-27T07:38:16;101266.56;;;21.89;25.48
13456;BME280;6800;50.940;6.940;2023-04-27T07:42:20;101247.25;;;24.24;22.01
13456;BME280;6800;50.940;6.940;2023-04-27T07:46:25;101244.25;;;24.77;21.17
13456;BME280;6800;50.940;6.940;2023-04-27T07:50:28;101242.91;;;23.20;23.48
13456;BME280;6800;50.940;6.940;2023-04-27T07:54:30;101245.44;;;23.40;23.43
13456;BME280;6800;50.940;6.940;2023-04-27T07:58:31;101238.41;;;25.70;21.12
13456;BME280;6800;50.940;6.940;2023-04-27T08:02:33;101244.13;;;25.43;20.86
13456;BME280;6800;50.940;6.940;2023-04-27T08:06:35;101236.94;;;22.38;24.68
13456;BME280;6800;50.940;6.940;2023-04-27T08:10:37;101234.19;;;24.71;22.22
13456;BME280;6800;50.940;6.940;2023-04-27T08:14:39;101241.03;;;21.59;24.42
13456;BME280;6800;50.940;6.940;2023-04-27T08:18:42;101238.91;;;23.85;21.51
13456;BME280;6800;50.940;6.940;2023-04-27T08:23:12;101244.88;;;20.21;25.87
13456;BME280;6800;50.940;6.940;2023-04-27T08:27:12;101231.75;;;21.73;24.51
13456;BME280;6800;50.940;6.940;2023-04-27T08:31:36;101223.16;;;25.87;19.86
13456;BME280;6800;50.940;6.940;2023-04-27T08:35:42;101217.72;;;26.42;18.78
13456;BME280;6800;50.940;6.940;2023-04-27T08:39:46;101209.09;;;27.22;17.52
13456;BME280;6800;50.940;6.940;2023-04-27T08:43:49;101216.34;;;26.15;18.97
13456;BME280;6800;50.940;6.940;2023-04-27T08:47:51;101221.75;;;22.48;22.37
13456;BME280;6800;50.940;6.940;2023-04-27T08:51:53;101214.94;;;26.58;18.26
13456;BME280;6800;50.940;6.940;2023-04-27T08:55:54;101202.22;;;29.14;16.73
13456;BME280;6800;50.940;6.940;2023-04-27T08:59:58;101209.66;;;26.19;18.71
13456;BME280;6800;50.940;6.940;2023-04-27T09:04:11;101196.63;;;26.92;18.77
13456;BME280;6800;50.940;6.940;2023-04-27T09:08:13;101210.78;;;23.65;20.79
13456;BME280;6800;50.940;6.940;2023-04-27T09:12:21;101202.56;;;23.92;21.46
13456;BME280;6800;50.940;6.940;2023-04-27T09:16:23;101190.56;;;28.44;16.91
13456;BME280;6800;50.940;6.940;2023-04-27T09:20:25;101194.97;;;24.55;20.07
13456;BME280;6800;50.940;6.940;2023-04-27T09:24:27;101210.94;;;23.38;21.22
13456;BME280;6800;50.940;6.940;2023-04-27T09:28:29;101183.19;;;28.46;16.81
13456;BME280;6800;50.940;6.940;2023-04-27T09:32:32;101186.91;;;30.78;14.63
13456;BME280;6800;50.940;6.940;2023-04-27T09:36:33;101192.56;;;26.96;17.78
13456;BME280;6800;50.940;6.940;2023-04-27T09:40:35;101192.97;;;28.96;16.51
13456;BME280;6800;50.940;6.940;2023-04-27T09:44:37;101173.03;;;31.01;14.34
13456;BME280;6800;50.940;6.940;2023-04-27T09:48:38;101174.00;;;30.60;14.77
13456;BME280;6800;50.940;6.940;2023-04-27T09:52:41;101177.53;;;26.95;18.05
13456;BME280;6800;50.940;6.940;2023-04-27T10:09:23;101161.53;;;29.79;16.04
13456;BME280;6800;50.940;6.940;2023-04-27T10:13:25;101161.41;;;30.00;15.08
13456;BME280;6800;50.940;6.940;2023-04-27T10:17:34;101161.22;;;24.38;20.59
13456;BME280;6800;50.940;6.940;2023-04-27T10:21:36;101146.13;;;30.27;15.40
13456;BME280;6800;50.940;6.940;2023-04-27T10:25:40;101142.38;;;28.57;16.40
13456;BME280;6800;50.940;6.940;2023-04-27T10:29:43;101146.44;;;28.53;16.35
13456;BME280;6800;50.940;6.940;2023-04-27T10:33:46;101137.31;;;31.18;14.70
13456;BME280;6800;50.940;6.940;2023-04-27T10:37:47;101135.84;;;31.29;14.69
13456;BME280;6800;50.940;6.940;2023-04-27T10:41:51;101131.22;;;29.71;15.20
13456;BME280;6800;50.940;6.940;2023-04-27T10:46:09;101126.63;;;28.33;17.22
13456;BME280;6800;50.940;6.940;2023-04-27T10:50:12;101123.50;;;30.02;16.05
13456;BME280;6800;50.940;6.940;2023-04-27T10:54:14;101125.97;;;29.56;15.57
13456;BME280;6800;50.940;6.940;2023-04-27T10:58:21;101105.94;;;32.63;13.58
13456;BME280;6800;50.940;6.940;2023-04-27T11:02:25;101101.84;;;32.79;13.35
13456;BME280;6800;50.940;6.940;2023-04-27T11:06:28;101105.88;;;31.63;14.45
13456;BME280;6800;50.940;6.940;2023-04-27T11:10:30;101116.44;;;27.93;17.58
13456;BME280;6800;50.940;6.940;2023-04-27T11:14:33;101109.75;;;30.70;15.60
13456;BME280;6800;50.940;6.940;2023-04-27T11:18:36;101102.84;;;31.20;14.92
13456;BME280;6800;50.940;6.940;2023-04-27T11:22:44;101099.13;;;31.15;15.35
13456;BME280;6800;50.940;6.940;2023-04-27T11:26:50;101091.13;;;29.89;15.31
13456;BME280;6800;50.940;6.940;2023-04-27T11:30:57;101090.47;;;31.70;14.29
13456;BME280;6800;50.940;6.940;2023-04-27T11:34:59;101088.09;;;31.29;14.58
13456;BME280;6800;50.940;6.940;2023-04-27T11:39:00;101084.22;;;30.34;14.89
13456;BME280;6800;50.940;6.940;2023-04-27T11:43:02;101086.84;;;28.92;16.52
13456;BME280;6800;50.940;6.940;2023-04-27T11:47:05;101091.63;;;30.25;14.96
13456;BME280;6800;50.940;6.940;2023-04-27T11:51:09;101083.41;;;29.32;15.46
13456;BME280;6800;50.940;6.940;2023-04-27T11:55:11;101073.44;;;29.67;16.00
13456;BME280;6800;50.940;6.940;2023-04-27T11:59:20;101062.63;;;28.92;16.09
13456;BME280;6800;50.940;6.940;2023-04-27T12:03:23;101058.50;;;28.19;16.63
13456;BME280;6800;50.940;6.940;2023-04-27T12:07:26;101069.41;;;27.97;17.10
13456;BME280;6800;50.940;6.940;2023-04-27T12:11:27;101071.31;;;27.23;17.72
13456;BME280;6800;50.940;6.940;2023-04-27T12:15:29;101060.09;;;28.35;16.91
13456;BME280;6800;50.940;6.940;2023-04-27T12:19:30;101054.03;;;28.75;16.13
13456;BME280;6800;50.940;6.940;2023-04-27T12:23:32;101059.50;;;27.03;17.93
13456;BME280;6800;50.940;6.940;2023-04-27T12:27:33;101044.59;;;27.30;17.74
13456;BME280;6800;50.940;6.940;2023-04-27T12:31:34;101044.78;;;26.47;18.71
13456;BME280;6800;50.940;6.940;2023-04-27T12:35:36;101047.63;;;28.76;16.51
13456;BME280;6800;50.940;6.940;2023-04-27T12:39:38;101037.38;;;23.91;20.31
13456;BME280;6800;50.940;6.940;2023-04-27T12:43:39;101036.09;;;25.30;19.29
13456;BME280;6800;50.940;6.940;2023-04-27T12:47:41;101045.16;;;25.68;19.13
13456;BME280;6800;50.940;6.940;2023-04-27T12:52:01;101045.53;;;23.40;21.41
13456;BME280;6800;50.940;6.940;2023-04-27T12:56:03;101038.38;;;24.95;19.75
13456;BME280;6800;50.940;6.940;2023-04-27T13:00:05;101046.78;;;25.38;19.39
13456;BME280;6800;50.940;6.940;2023-04-27T13:04:16;101034.81;;;26.18;18.33
13456;BME280;6800;50.940;6.940;2023-04-27T13:08:20;101040.03;;;26.72;18.34
13456;BME280;6800;50.940;6.940;2023-04-27T13:12:21;101045.19;;;26.59;18.24
13456;BME280;6800;50.940;6.940;2023-04-27T13:16:25;101045.44;;;25.42;19.40
13456;BME280;6800;50.940;6.940;2023-04-27T13:20:26;101030.66;;;27.05;18.49
13456;BME280;6800;50.940;6.940;2023-04-27T13:24:28;101036.56;;;26.03;18.67
13456;BME280;6800;50.940;6.940;2023-04-27T13:28:29;101028.66;;;26.33;18.23
13456;BME280;6800;50.940;6.940;2023-04-27T13:32:31;101031.41;;;25.40;19.50
13456;BME280;6800;50.940;6.940;2023-04-27T13:36:32;101027.75;;;25.72;19.38
13456;BME280;6800;50.940;6.940;2023-04-27T13:40:34;101034.22;;;25.39;19.96
13456;BME280;6800;50.940;6.940;2023-04-27T13:44:35;101020.25;;;25.68;19.35
13456;BME280;6800;50.940;6.940;2023-04-27T13:48:37;101025.28;;;25.63;19.49
13456;BME280;6800;50.940;6.940;2023-04-27T13:52:38;101022.47;;;25.56;19.30
13456;BME280;6800;50.940;6.940;2023-04-27T13:56:40;101018.88;;;23.97;21.13
13456;BME280;6800;50.940;6.940;2023-04-27T14:00:41;101004.06;;;25.61;19.20
13456;BME280;6800;50.940;6.940;2023-04-27T14:04:43;101001.19;;;23.88;21.22
13456;BME280;6800;50.940;6.940;2023-04-27T14:08:44;100999.91;;;24.25;20.20
13456;BME280;6800;50.940;6.940;2023-04-27T14:12:46;100995.69;;;24.78;19.83
13456;BME280;6800;50.940;6.940;2023-04-27T14:16:47;100988.69;;;25.24;19.44
13456;BME280;6800;50.940;6.940;2023-04-27T14:20:51;100992.06;;;24.23;20.27
13456;BME280;6800;50.940;6.940;2023-04-27T14:24:55;100984.00;;;25.26;19.26
13456;BME280;6800;50.940;6.940;2023-04-27T14:28:57;100982.41;;;24.38;20.04
13456;BME280;6800;50.940;6.940;2023-04-27T14:32:59;100977.03;;;26.01;19.05
13456;BME280;6800;50.940;6.940;2023-04-27T14:37:00;100962.88;;;25.93;19.04
13456;BME280;6800;50.940;6.940;2023-04-27T14:41:01;100960.75;;;26.11;18.56
13456;BME280;6800;50.940;6.940;2023-04-27T14:45:03;100952.81;;;26.17;18.82
13456;BME280;6800;50.940;6.940;2023-04-27T14:49:05;100946.81;;;26.67;18.12
13456;BME280;6800;50.940;6.940;2023-04-27T14:53:06;100941.00;;;26.12;18.63
13456;BME280;6800;50.940;6.940;2023-04-27T14:57:08;100942.75;;;26.19;18.89
13456;BME280;6800;50.940;6.940;2023-04-27T15:01:09;100934.94;;;25.50;19.24
13456;BME280;6800;50.940;6.940;2023-04-27T15:05:11;100938.00;;;23.65;21.10
13456;BME280;6800;50.940;6.940;2023-04-27T15:09:12;100930.91;;;25.77;18.56
13456;BME280;6800;50.940;6.940;2023-04-27T15:13:15;100929.00;;;24.46;19.62
13456;BME280;6800;50.940;6.940;2023-04-27T15:17:16;100927.44;;;25.45;19.25
13456;BME280;6800;50.940;6.940;2023-04-27T15:21:18;100919.50;;;23.47;20.74
13456;BME280;6800;50.940;6.940;2023-04-27T15:25:19;100904.91;;;25.40;18.75
13456;BME280;6800;50.940;6.940;2023-04-27T15:29:21;100922.03;;;24.13;20.16
13456;BME280;6800;50.940;6.940;2023-04-27T15:33:22;100917.31;;;23.59;20.67
13456;BME280;6800;50.940;6.940;2023-04-27T15:37:25;100911.84;;;23.84;20.55
13456;BME280;6800;50.940;6.940;2023-04-27T15:41:28;100905.19;;;23.80;20.42
13456;BME280;6800;50.940;6.940;2023-04-27T15:45:30;100908.84;;;24.12;19.75
13456;BME280;6800;50.940;6.940;2023-04-27T15:49:31;100905.19;;;24.13;20.44
13456;BME280;6800;50.940;6.940;2023-04-27T15:53:46;100892.56;;;26.21;18.73
13456;BME280;6800;50.940;6.940;2023-04-27T15:57:48;100891.38;;;24.09;20.09
13456;BME280;6800;50.940;6.940;2023-04-27T16:01:49;100888.88;;;24.70;19.56
13456;BME280;6800;50.940;6.940;2023-04-27T16:05:50;100880.75;;;24.95;19.46
13456;BME280;6800;50.940;6.940;2023-04-27T16:09:52;100880.50;;;24.82;19.57
13456;BME280;6800;50.940;6.940;2023-04-27T16:13:54;100883.50;;;23.51;20.40
13456;BME280;6800;50.940;6.940;2023-04-27T16:17:55;100866.34;;;26.17;18.20
13456;BME280;6800;50.940;6.940;2023-04-27T16:21:57;100868.56;;;26.43;18.57
13456;BME280;6800;50.940;6.940;2023-04-27T16:25:58;100864.31;;;26.34;18.79
13456;BME280;6800;50.940;6.940;2023-04-27T16:30:00;100858.97;;;26.63;18.27
13456;BME280;6800;50.940;6.940;2023-04-27T16:34:01;100842.69;;;26.64;18.61
13456;BME280;6800;50.940;6.940;2023-04-27T16:38:04;100849.94;;;25.60;19.31
13456;BME280;6800;50.940;6.940;2023-04-27T16:42:06;100852.09;;;25.19;19.79
13456;BME280;6800;50.940;6.940;2023-04-27T16:46:08;100846.13;;;24.32;21.25
13456;BME280;6800;50.940;6.940;2023-04-27T16:50:10;100840.00;;;24.15;21.68
13456;BME280;6800;50.940;6.940;2023-04-27T16:54:11;100829.09;;;24.79;20.70
13456;BME280;6800;50.940;6.940;2023-04-27T16:58:16;100835.16;;;23.94;21.58
13456;BME280;6800;50.940;6.940;2023-04-27T17:02:17;100823.81;;;24.00;21.59
13456;BME280;6800;50.940;6.940;2023-04-27T17:06:26;100824.66;;;23.93;22.22
13456;BME280;6800;50.940;6.940;2023-04-27T17:10:28;100817.22;;;24.82;21.58
13456;BME280;6800;50.940;6.940;2023-04-27T17:14:29;100825.44;;;24.34;21.48
13456;BME280;6800;50.940;6.940;2023-04-27T17:18:31;100809.84;;;24.07;22.04
13456;BME280;6800;50.940;6.940;2023-04-27T17:22:34;100798.03;;;25.54;20.87
13456;BME280;6800;50.940;6.940;2023-04-27T17:26:35;100812.28;;;24.16;22.32
13456;BME280;6800;50.940;6.940;2023-04-27T17:30:37;100802.28;;;22.89;23.79
13456;BME280;6800;50.940;6.940;2023-04-27T17:34:39;100798.88;;;23.53;23.13
13456;BME280;6800;50.940;6.940;2023-04-27T17:38:43;100803.16;;;23.94;22.70
13456;BME280;6800;50.940;6.940;2023-04-27T17:42:44;100799.91;;;25.01;21.98
13456;BME280;6800;50.940;6.940;2023-04-27T17:46:47;100804.16;;;23.77;23.12
13456;BME280;6800;50.940;6.940;2023-04-27T17:50:49;100797.63;;;24.12;22.92
13456;BME280;6800;50.940;6.940;2023-04-27T17:54:50;100807.00;;;24.08;22.69
13456;BME280;6800;50.940;6.940;2023-04-27T17:58:52;100801.00;;;23.98;23.08
13456;BME280;6800;50.940;6.940;2023-04-27T18:02:53;100798.16;;;23.11;24.14
13456;BME280;6800;50.940;6.940;2023-04-27T18:06:54;100782.50;;;24.51;22.90
13456;BME280;6800;50.940;6.940;2023-04-27T18:10:56;100771.25;;;24.25;22.77
13456;BME280;6800;50.940;6.940;2023-04-27T18:14:57;100767.03;;;23.68;24.08
13456;BME280;6800;50.940;6.940;2023-04-27T18:19:00;100776.88;;;24.38;23.43
13456;BME280;6800;50.940;6.940;2023-04-27T18:23:02;100781.59;;;24.20;23.51
13456;BME280;6800;50.940;6.940;2023-04-27T18:27:03;100780.63;;;23.97;23.79
13456;BME280;6800;50.940;6.940;2023-04-27T18:31:15;100778.59;;;24.23;23.28
13456;BME280;6800;50.940;6.940;2023-04-27T18:35:17;100778.72;;;23.51;24.34
13456;BME280;6800;50.940;6.940;2023-04-27T18:39:18;100785.34;;;23.22;25.03
13456;BME280;6800;50.940;6.940;2023-04-27T18:43:20;100785.22;;;23.64;24.37
13456;BME280;6800;50.940;6.940;2023-04-27T18:47:22;100781.31;;;24.07;23.83
13456;BME280;6800;50.940;6.940;2023-04-27T18:51:23;100778.03;;;23.24;25.04
13456;BME280;6800;50.940;6.940;2023-04-27T18:55:26;100777.03;;;23.09;24.93
13456;BME280;6800;50.940;6.940;2023-04-27T18:59:27;100767.38;;;23.57;24.68
13456;BME280;6800;50.940;6.940;2023-04-27T19:03:29;100764.88;;;23.31;24.68
13456;BME280;6800;50.940;6.940;2023-04-27T19:07:31;100760.31;;;23.96;24.27
13456;BME280;6800;50.940;6.940;2023-04-27T19:11:33;100766.63;;;23.95;24.02
13456;BME280;6800;50.940;6.940;2023-04-27T19:15:35;100757.72;;;24.27;24.74
13456;BME280;6800;50.940;6.940;2023-04-27T19:19:36;100775.34;;;23.08;26.00
13456;BME280;6800;50.940;6.940;2023-04-27T19:23:40;100775.50;;;22.99;25.82
13456;BME280;6800;50.940;6.940;2023-04-27T19:27:42;100781.59;;;22.67;25.87
13456;BME280;6800;50.940;6.940;2023-04-27T19:31:43;100784.34;;;22.49;26.28
13456;BME280;6800;50.940;6.940;2023-04-27T19:35:45;100784.50;;;22.48;26.61
13456;BME280;6800;50.940;6.940;2023-04-27T19:39:46;100789.19;;;23.20;25.22
13456;BME280;6800;50.940;6.940;2023-04-27T19:43:48;100792.84;;;23.11;25.63
13456;BME280;6800;50.940;6.940;2023-04-27T19:47:49;100785.94;;;22.26;26.48
13456;BME280;6800;50.940;6.940;2023-04-27T19:51:51;100798.88;;;23.37;24.95
13456;BME280;6800;50.940;6.940;2023-04-27T19:55:52;100796.84;;;23.23;25.01
13456;BME280;6800;50.940;6.940;2023-04-27T19:59:54;100804.69;;;21.73;26.82
13456;BME280;6800;50.940;6.940;2023-04-27T20:03:55;100796.31;;;23.03;25.43
13456;BME280;6800;50.940;6.940;2023-04-27T20:07:57;100788.09;;;22.65;25.75
13456;BME280;6800;50.940;6.940;2023-04-27T20:11:59;100780.88;;;22.57;25.73
13456;BME280;6800;50.940;6.940;2023-04-27T20:16:00;100769.06;;;23.42;25.03
13456;BME280;6800;50.940;6.940;2023-04-27T20:20:02;100760.69;;;23.28;25.05
13456;BME280;6800;50.940;6.940;2023-04-27T20:24:06;100757.03;;;22.81;25.82
13456;BME280;6800;50.940;6.940;2023-04-27T20:28:08;100764.47;;;22.70;26.00
13456;BME280;6800;50.940;6.940;2023-04-27T20:32:09;100762.16;;;22.75;25.92
13456;BME280;6800;50.940;6.940;2023-04-27T20:36:10;100764.78;;;22.25;26.52
13456;BME280;6800;50.940;6.940;2023-04-27T20:40:18;100761.81;;;22.70;26.08
13456;BME280;6800;50.940;6.940;2023-04-27T20:44:20;100759.19;;;22.94;25.47
13456;BME280;6800;50.940;6.940;2023-04-27T20:48:22;100757.53;;;22.35;26.38
13456;BME280;6800;50.940;6.940;2023-04-27T20:52:24;100757.41;;;23.43;25.07
13456;BME280;6800;50.940;6.940;2023-04-27T20:56:28;100748.75;;;23.49;24.82
13456;BME280;6800;50.940;6.940;2023-04-27T21:00:33;100736.41;;;23.40;25.04
13456;BME280;6800;50.940;6.940;2023-04-27T21:04:34;100749.72;;;23.64;24.94
13456;BME280;6800;50.940;6.940;2023-04-27T21:08:36;100741.72;;;23.32;25.21
13456;BME280;6800;50.940;6.940;2023-04-27T21:12:40;100730.19;;;23.71;24.51
13456;BME280;6800;50.940;6.940;2023-04-27T21:16:41;100730.41;;;23.62;24.50
13456;BME280;6800;50.940;6.940;2023-04-27T21:20:43;100716.28;;;23.45;24.85
13456;BME280;6800;50.940;6.940;2023-04-27T21:24:45;100713.41;;;23.22;25.22
13456;BME280;6800;50.940;6.940;2023-04-27T21:28:46;100707.91;;;23.16;25.19
13456;BME280;6800;50.940;6.940;2023-04-27T21:32:48;100687.94;;;23.28;25.33
13456;BME280;6800;50.940;6.940;2023-04-27T21:36:49;100691.13;;;22.91;26.02